createdAt,value
2017-08-29T00:01:16.586Z,65.60
2017-08-29T00:06:19.215Z,66.90
2017-08-29T00:11:21.835Z,66.90
2017-08-29T00:16:24.433Z,66.60
2017-08-29T00:21:27.055Z,66.60
2017-08-29T00:26:30.437Z,67.70
2017-08-29T00:31:33.066Z,67.70
2017-08-29T00:36:35.666Z,68.10
2017-08-29T00:41:38.296Z,68.50
2017-08-29T00:46:40.963Z,68.70
2017-08-29T00:51:43.566Z,68.90
2017-08-29T00:56:46.162Z,69.70
2017-08-29T01:01:49.487Z,69.70
2017-08-29T01:06:52.098Z,69.30
2017-08-29T01:11:55.478Z,69.30
2017-08-29T01:16:58.081Z,69.30
2017-08-29T01:22:00.823Z,70.00
2017-08-29T01:27:04.230Z,70.10
2017-08-29T01:32:06.859Z,70.00
2017-08-29T01:37:10.121Z,69.60
2017-08-29T01:42:12.759Z,70.40
2017-08-29T01:47:15.409Z,70.50
2017-08-29T01:52:18.017Z,70.20
2017-08-29T01:57:20.623Z,70.00
2017-08-29T02:02:23.223Z,69.40
2017-08-29T02:07:26.113Z,69.70
2017-08-29T02:12:28.734Z,70.30
2017-08-29T02:17:31.345Z,69.70
2017-08-29T02:22:33.949Z,70.40
2017-08-29T02:27:36.575Z,70.30
2017-08-29T02:32:39.191Z,70.20
2017-08-29T02:37:41.791Z,70.20
2017-08-29T02:42:44.426Z,70.00
2017-08-29T02:47:47.046Z,70.60
2017-08-29T02:52:49.699Z,70.50
2017-08-29T02:57:52.319Z,70.70
2017-08-29T03:02:54.942Z,69.80
2017-08-29T03:07:57.571Z,70.30
2017-08-29T03:13:00.199Z,70.50
2017-08-29T03:18:02.830Z,70.60
2017-08-29T03:23:05.489Z,70.70
2017-08-29T03:28:08.105Z,70.30
2017-08-29T03:33:10.725Z,70.60
2017-08-29T03:38:13.355Z,70.20
2017-08-29T03:43:15.966Z,70.90
2017-08-29T03:48:19.443Z,70.70
2017-08-29T03:53:22.070Z,70.40
2017-08-29T03:58:24.705Z,70.40
2017-08-29T04:03:27.354Z,70.70
2017-08-29T04:08:29.954Z,71.20
2017-08-29T04:13:32.560Z,70.80
2017-08-29T04:18:35.186Z,71.00
2017-08-29T04:23:37.791Z,72.00
2017-08-29T04:28:40.407Z,71.00
2017-08-29T04:33:43.028Z,70.90
2017-08-29T04:38:45.665Z,70.30
2017-08-29T04:43:48.325Z,71.10
2017-08-29T04:48:50.967Z,70.20
2017-08-29T04:53:53.581Z,71.30
2017-08-29T04:58:56.174Z,71.30
2017-08-29T05:03:58.782Z,71.50
2017-08-29T05:09:01.370Z,71.30
2017-08-29T05:14:04.007Z,71.80
2017-08-29T05:19:06.634Z,72.00
2017-08-29T05:24:09.339Z,71.50
2017-08-29T05:29:11.969Z,71.70
2017-08-29T05:34:15.838Z,71.40
2017-08-29T05:39:18.449Z,71.00
2017-08-29T05:44:21.047Z,71.00
2017-08-29T05:49:23.669Z,70.70
2017-08-29T05:54:26.293Z,70.50
2017-08-29T05:59:29.764Z,70.90
2017-08-29T06:04:32.990Z,70.60
2017-08-29T06:09:35.583Z,70.80
2017-08-29T06:14:38.194Z,70.20
2017-08-29T06:19:40.810Z,69.60
2017-08-29T06:24:43.414Z,68.90
2017-08-29T06:29:45.997Z,68.20
2017-08-29T06:34:49.391Z,66.80
2017-08-29T06:39:52.149Z,66.60
2017-08-29T06:44:54.748Z,65.90
2017-08-29T06:49:57.379Z,65.80
2017-08-29T06:54:59.987Z,64.60
2017-08-29T07:00:02.614Z,64.40
2017-08-29T07:05:05.286Z,63.00
2017-08-29T07:10:07.977Z,63.60
2017-08-29T07:15:10.585Z,61.90
2017-08-29T07:20:13.190Z,60.80
2017-08-29T07:25:16.900Z,60.90
2017-08-29T07:30:19.627Z,59.70
2017-08-29T07:35:22.247Z,59.50
2017-08-29T07:40:27.588Z,58.70
2017-08-29T07:45:30.202Z,58.80
2017-08-29T07:50:32.809Z,57.50
2017-08-29T07:55:36.983Z,57.20
2017-08-29T08:00:39.630Z,57.00
2017-08-29T08:05:42.255Z,56.50
2017-08-29T08:10:44.877Z,56.10
2017-08-29T08:15:47.523Z,55.50
2017-08-29T08:20:50.145Z,55.20
2017-08-29T08:25:52.798Z,54.60
2017-08-29T08:30:55.409Z,54.50
2017-08-29T08:35:58.083Z,55.00
2017-08-29T08:41:00.684Z,55.00
2017-08-29T08:46:03.300Z,54.70
2017-08-29T08:51:14.469Z,54.20
2017-08-29T08:56:17.365Z,54.00
2017-08-29T09:01:19.967Z,53.90
2017-08-29T09:06:22.581Z,53.20
2017-08-29T09:11:25.202Z,53.00
2017-08-29T09:16:27.851Z,52.30
2017-08-29T09:21:30.558Z,52.80
2017-08-29T09:26:33.205Z,52.60
2017-08-29T09:31:35.957Z,52.40
2017-08-29T09:36:38.596Z,51.80
2017-08-29T09:41:41.221Z,51.70
2017-08-29T09:46:44.603Z,50.70
2017-08-29T09:51:48.474Z,50.60
2017-08-29T09:56:51.085Z,50.70
2017-08-29T10:01:53.678Z,50.60
2017-08-29T10:06:56.265Z,50.40
2017-08-29T10:11:59.626Z,49.60
2017-08-29T10:17:02.246Z,48.90
2017-08-29T10:22:05.087Z,49.80
2017-08-29T10:27:07.710Z,49.40
2017-08-29T10:32:10.385Z,49.50
2017-08-29T10:37:13.029Z,49.50
2017-08-29T10:42:15.639Z,48.90
2017-08-29T10:47:18.287Z,49.10
2017-08-29T10:52:21.750Z,48.40
2017-08-29T10:57:24.472Z,48.30
2017-08-29T11:02:27.131Z,47.60
2017-08-29T11:07:29.787Z,47.50
2017-08-29T11:12:32.434Z,47.90
2017-08-29T11:17:37.085Z,47.80
2017-08-29T11:22:39.774Z,46.50
2017-08-29T11:27:42.438Z,46.20
2017-08-29T11:32:45.063Z,46.60
2017-08-29T11:37:47.677Z,46.10
2017-08-29T11:42:50.281Z,46.50
2017-08-29T11:47:52.909Z,46.60
2017-08-29T11:52:55.513Z,45.80
2017-08-29T11:57:58.113Z,46.00
2017-08-29T12:03:00.719Z,45.50
2017-08-29T12:08:03.349Z,45.40
2017-08-29T12:13:05.962Z,45.10
2017-08-29T12:18:08.555Z,44.50
2017-08-29T12:23:11.156Z,44.50
2017-08-29T12:28:13.754Z,44.50
2017-08-29T12:33:16.365Z,44.60
2017-08-29T12:38:18.970Z,43.80
2017-08-29T12:43:21.628Z,43.70
2017-08-29T12:48:25.073Z,43.50
2017-08-29T12:53:27.684Z,43.80
2017-08-29T12:58:30.312Z,43.70
2017-08-29T13:03:32.918Z,43.70
2017-08-29T13:08:35.524Z,43.60
2017-08-29T13:13:38.154Z,43.00
2017-08-29T13:18:40.763Z,42.40
2017-08-29T13:23:43.374Z,42.10
2017-08-29T13:28:46.009Z,41.90
2017-08-29T13:33:48.622Z,42.80
2017-08-29T13:38:51.242Z,41.90
2017-08-29T13:43:53.857Z,42.30
2017-08-29T13:48:56.470Z,41.30
2017-08-29T13:53:59.097Z,40.90
2017-08-29T13:59:01.710Z,40.70
2017-08-29T14:04:04.312Z,40.60
2017-08-29T14:09:06.905Z,40.40
2017-08-29T14:14:09.497Z,41.00
2017-08-29T14:19:12.150Z,41.30
2017-08-29T14:24:14.758Z,40.80
2017-08-29T14:29:17.356Z,40.60
2017-08-29T14:34:19.978Z,39.60
2017-08-29T14:39:22.576Z,40.50
2017-08-29T14:44:25.201Z,40.60
2017-08-29T14:49:27.840Z,40.70
2017-08-29T14:54:30.450Z,40.50
2017-08-29T14:59:33.080Z,39.90
2017-08-29T15:04:35.691Z,40.10
2017-08-29T15:09:38.282Z,39.60
2017-08-29T15:14:41.443Z,39.40
2017-08-29T15:19:44.060Z,39.40
2017-08-29T15:24:46.699Z,39.20
2017-08-29T15:29:49.329Z,39.00
2017-08-29T15:34:51.931Z,38.70
2017-08-29T15:39:54.541Z,38.50
2017-08-29T15:44:57.150Z,39.40
2017-08-29T15:49:59.774Z,39.10
2017-08-29T15:55:02.394Z,39.40
2017-08-29T16:00:05.009Z,39.60
2017-08-29T16:05:07.598Z,40.00
2017-08-29T16:10:10.231Z,40.10
2017-08-29T16:15:12.842Z,40.10
2017-08-29T16:20:15.718Z,39.70
2017-08-29T16:25:18.305Z,39.90
2017-08-29T16:30:20.958Z,40.00
2017-08-29T16:35:23.609Z,40.10
2017-08-29T16:40:26.202Z,40.10
2017-08-29T16:45:28.852Z,40.10
2017-08-29T16:50:31.474Z,40.50
2017-08-29T16:55:34.086Z,40.70
2017-08-29T17:00:36.741Z,40.90
2017-08-29T17:05:39.321Z,41.00
2017-08-29T17:10:43.017Z,41.20
2017-08-29T17:15:45.609Z,41.80
2017-08-29T17:20:48.208Z,42.10
2017-08-29T17:25:50.844Z,42.30
2017-08-29T17:30:53.638Z,42.60
2017-08-29T17:35:56.312Z,42.70
2017-08-29T17:40:58.942Z,42.80
2017-08-29T17:46:01.549Z,42.90
2017-08-29T17:51:04.167Z,43.30
2017-08-29T17:56:06.776Z,43.60
2017-08-29T18:01:09.382Z,44.00
2017-08-29T18:06:11.986Z,44.70
2017-08-29T18:11:14.580Z,45.10
2017-08-29T18:16:17.166Z,46.00
2017-08-29T18:21:19.813Z,46.30
2017-08-29T18:26:22.422Z,47.10
2017-08-29T18:31:25.043Z,47.00
2017-08-29T18:36:27.679Z,48.20
2017-08-29T18:41:30.325Z,48.70
2017-08-29T18:46:32.967Z,49.00
2017-08-29T18:51:35.573Z,49.20
2017-08-29T18:56:38.193Z,49.80
2017-08-29T19:01:40.798Z,50.20
2017-08-29T19:06:43.412Z,50.60
2017-08-29T19:11:46.011Z,50.80
2017-08-29T19:16:48.642Z,51.10
2017-08-29T19:21:51.293Z,51.60
2017-08-29T19:26:53.905Z,51.90
2017-08-29T19:31:56.560Z,52.30
2017-08-29T19:36:59.159Z,52.40
2017-08-29T19:42:01.774Z,52.40
2017-08-29T19:47:04.394Z,53.00
2017-08-29T19:52:07.040Z,52.80
2017-08-29T19:57:09.667Z,53.00
2017-08-29T20:02:12.297Z,53.40
2017-08-29T20:07:14.894Z,53.70
2017-08-29T20:12:17.523Z,54.10
2017-08-29T20:17:20.106Z,54.10
2017-08-29T20:22:22.696Z,54.50
2017-08-29T20:27:25.302Z,54.80
2017-08-29T20:32:27.907Z,55.20
2017-08-29T20:37:30.518Z,55.90
2017-08-29T20:42:33.115Z,56.10
2017-08-29T20:47:35.741Z,56.30
2017-08-29T20:52:38.364Z,56.20
2017-08-29T20:57:41.750Z,56.80
2017-08-29T21:02:44.364Z,56.80
2017-08-29T21:07:46.954Z,56.90
2017-08-29T21:12:49.549Z,58.10
2017-08-29T21:17:52.146Z,57.60
2017-08-29T21:22:54.818Z,57.70
2017-08-29T21:27:57.435Z,57.60
2017-08-29T21:33:00.063Z,57.90
2017-08-29T21:38:02.649Z,58.00
2017-08-29T21:43:05.373Z,58.30
2017-08-29T21:48:08.012Z,58.50
2017-08-29T21:53:10.619Z,58.60
2017-08-29T21:58:13.209Z,59.10
2017-08-29T22:03:15.812Z,58.90
2017-08-29T22:08:18.431Z,59.40
2017-08-29T22:13:21.027Z,59.50
2017-08-29T22:18:23.654Z,59.50
2017-08-29T22:23:26.298Z,59.40
2017-08-29T22:28:28.934Z,59.70
2017-08-29T22:33:31.566Z,59.80
2017-08-29T22:38:34.165Z,59.90
2017-08-29T22:43:36.791Z,60.50
2017-08-29T22:48:39.385Z,59.40
2017-08-29T22:53:41.995Z,59.80
2017-08-29T22:58:44.598Z,60.10
2017-08-29T23:03:47.214Z,60.10
2017-08-29T23:08:49.853Z,60.10
2017-08-29T23:13:52.492Z,60.30
2017-08-29T23:18:55.121Z,60.20
2017-08-29T23:23:57.757Z,60.30
2017-08-29T23:29:00.361Z,60.00
2017-08-29T23:34:02.977Z,60.40
2017-08-29T23:39:05.576Z,60.60
2017-08-29T23:44:08.181Z,60.50
2017-08-29T23:49:10.781Z,60.40
2017-08-29T23:54:13.398Z,60.30
2017-08-29T23:59:16.017Z,60.70
